Time;durP1;ratioP1;P1;durP2;ratioP2;P2;SDS_P1;SDS_P2;PMS_P1;PMS_P2;Temp;Humidity;BMP_temperature;BMP_pressure;BME280_temperature;BME280_humidity;BME280_pressure;Samples;Min_cycle;Max_cycle;Signal;HPM_P1;HPM_P2
2022/04/14 00:01:47;;;;;;;;;;;19.70;54.30;;;;;;5021729;28;20624;-59
2022/04/14 00:04:12;;;;;;;;;;;19.70;54.20;;;;;;5022489;28;19913;-60
2022/04/14 00:06:38;;;;;;;;;;;19.60;54.20;;;;;;5022708;28;19940;-58
2022/04/14 00:09:03;;;;;;;;;;;19.60;54.20;;;;;;5034305;28;20374;-57
2022/04/14 00:11:29;;;;;;;;;;;19.70;54.20;;;;;;5042740;28;19921;-58
2022/04/14 00:13:54;;;;;;;;;;;19.60;54.20;;;;;;5042019;28;19913;-58
2022/04/14 00:16:20;;;;;;;;;;;19.70;54.20;;;;;;5022347;28;19923;-56
2022/04/14 00:18:45;;;;;;;;;;;19.70;54.30;;;;;;5022014;28;19971;-57
2022/04/14 00:21:10;;;;;;;;;;;19.60;54.20;;;;;;5024254;28;19940;-57
2022/04/14 00:23:36;;;;;;;;;;;19.70;54.30;;;;;;5023994;28;20374;-59
2022/04/14 00:26:01;;;;;;;;;;;19.60;54.20;;;;;;5024018;28;19913;-59
2022/04/14 00:28:27;;;;;;;;;;;19.70;54.30;;;;;;5023189;28;19923;-59
2022/04/14 00:30:52;;;;;;;;;;;19.70;54.30;;;;;;5023031;28;19918;-60
2022/04/14 00:33:18;;;;;;;;;;;19.60;54.20;;;;;;5024108;28;20325;-59
2022/04/14 00:35:43;;;;;;;;;;;19.70;54.30;;;;;;5023477;28;19917;-59
2022/04/14 00:38:09;;;;;;;;;;;19.70;54.30;;;;;;5023748;28;20326;-57
2022/04/14 00:40:34;;;;;;;;;;;19.70;54.30;;;;;;5022404;28;19917;-58
2022/04/14 00:42:59;;;;;;;;;;;19.70;54.30;;;;;;5024523;28;19920;-58
2022/04/14 00:45:25;;;;;;;;;;;19.70;54.30;;;;;;5022788;28;20278;-58
2022/04/14 00:47:50;;;;;;;;;;;19.70;54.20;;;;;;5023506;28;19947;-57
2022/04/14 00:50:16;;;;;;;;;;;19.60;54.20;;;;;;5022168;28;20008;-59
2022/04/14 00:52:45;;;;;;;;;;;19.70;54.30;;;;;;5023795;28;19937;-59
2022/04/14 00:55:10;;;;;;;;;;;19.60;54.20;;;;;;5027039;28;20028;-58
2022/04/14 00:57:36;;;;;;;;;;;19.70;54.30;;;;;;5027001;28;20048;-59
2022/04/14 01:00:01;;;;;;;;;;;19.70;54.30;;;;;;5023227;28;20375;-57
2022/04/14 01:02:27;;;;;;;;;;;19.70;54.30;;;;;;5026788;28;19917;-58
2022/04/14 01:04:52;;;;;;;;;;;19.70;54.20;;;;;;5025229;28;19970;-56
2022/04/14 01:07:18;;;;;;;;;;;19.60;54.20;;;;;;5026515;28;19913;-58
2022/04/14 01:09:43;;;;;;;;;;;19.70;54.30;;;;;;5024953;28;20374;-57
2022/04/14 01:12:09;;;;;;;;;;;19.70;54.30;;;;;;5025955;28;19913;-58
2022/04/14 01:14:35;;;;;;;;;;;19.70;54.30;;;;;;5024846;28;20545;-58
2022/04/14 01:17:01;;;;;;;;;;;19.70;54.30;;;;;;5027946;28;19913;-59
2022/04/14 01:19:26;;;;;;;;;;;19.70;54.30;;;;;;5031074;28;19964;-58
2022/04/14 01:22:15;;;;;;;;;;;19.70;54.30;;;;;;5029009;28;20012;-57
2022/04/14 01:24:40;;;;;;;;;;;19.60;54.20;;;;;;5025811;28;19924;-58
2022/04/14 01:27:06;;;;;;;;;;;19.70;54.20;;;;;;5025300;28;20016;-58
2022/04/14 01:29:31;;;;;;;;;;;19.70;54.30;;;;;;5023672;28;19921;-58
2022/04/14 01:31:57;;;;;;;;;;;19.60;54.30;;;;;;5025220;28;20508;-58
2022/04/14 01:34:22;;;;;;;;;;;19.70;54.30;;;;;;5025429;28;19917;-58
2022/04/14 01:36:48;;;;;;;;;;;19.70;54.30;;;;;;5024893;28;19924;-58
2022/04/14 01:39:14;;;;;;;;;;;19.70;54.20;;;;;;5023411;28;19924;-58
2022/04/14 01:41:39;;;;;;;;;;;19.70;54.30;;;;;;5025512;28;20531;-56
2022/04/14 01:44:05;;;;;;;;;;;19.70;54.30;;;;;;5025549;28;19952;-57
2022/04/14 01:46:30;;;;;;;;;;;19.70;54.30;;;;;;5026412;28;19928;-57
2022/04/14 01:48:57;;;;;;;;;;;19.70;54.30;;;;;;5024768;28;19962;-58
2022/04/14 01:51:23;;;;;;;;;;;19.70;54.30;;;;;;5026073;28;19928;-59
2022/04/14 01:53:48;;;;;;;;;;;19.70;54.30;;;;;;5026085;28;20128;-58
2022/04/14 01:56:14;;;;;;;;;;;19.70;54.30;;;;;;5025727;28;19913;-56
2022/04/14 01:58:39;;;;;;;;;;;19.70;54.20;;;;;;5024244;28;20004;-58
2022/04/14 02:01:05;;;;;;;;;;;19.70;54.30;;;;;;5026352;28;20278;-58
2022/04/14 02:03:30;;;;;;;;;;;19.70;54.20;;;;;;5026920;28;19923;-57
2022/04/14 02:05:56;;;;;;;;;;;19.70;54.20;;;;;;5026456;28;19913;-58
2022/04/14 02:08:21;;;;;;;;;;;19.70;54.20;;;;;;5025535;28;19921;-58
2022/04/14 02:10:47;;;;;;;;;;;19.70;54.20;;;;;;5024491;28;19927;-58
2022/04/14 02:13:12;;;;;;;;;;;19.70;54.20;;;;;;5025631;28;19917;-58
2022/04/14 02:15:38;;;;;;;;;;;19.70;54.30;;;;;;5025915;28;20652;-58
2022/04/14 02:18:03;;;;;;;;;;;19.70;54.30;;;;;;5026201;28;19918;-58
2022/04/14 02:20:29;;;;;;;;;;;19.70;54.30;;;;;;5025057;28;20010;-58
2022/04/14 02:22:54;;;;;;;;;;;19.70;54.30;;;;;;5026030;28;20621;-57
2022/04/14 02:25:20;;;;;;;;;;;19.60;54.20;;;;;;5025844;28;19921;-57
2022/04/14 02:27:46;;;;;;;;;;;19.70;54.30;;;;;;5025893;28;19917;-58
2022/04/14 02:30:11;;;;;;;;;;;19.70;54.30;;;;;;5024210;28;19928;-59
2022/04/14 02:32:37;;;;;;;;;;;19.60;54.20;;;;;;5024500;28;19925;-58
2022/04/14 02:35:04;;;;;;;;;;;19.70;54.20;;;;;;5026013;28;19935;-60
2022/04/14 02:37:29;;;;;;;;;;;19.70;54.90;;;;;;5026663;28;20036;-57
2022/04/14 02:39:55;;;;;;;;;;;19.70;54.20;;;;;;5024383;28;19980;-59
2022/04/14 02:42:20;;;;;;;;;;;19.70;54.20;;;;;;5025644;28;19921;-58
2022/04/14 02:44:46;;;;;;;;;;;19.70;54.30;;;;;;5036919;22;19933;-54
2022/04/14 02:47:11;;;;;;;;;;;19.60;54.30;;;;;;5022067;28;19936;-56
2022/04/14 02:49:37;;;;;;;;;;;19.70;54.20;;;;;;5022007;28;19929;-54
2022/04/14 02:52:02;;;;;;;;;;;19.60;54.20;;;;;;5023731;28;19956;-64
2022/04/14 02:54:27;;;;;;;;;;;19.70;54.20;;;;;;5022953;28;19921;-57
2022/04/14 02:56:53;;;;;;;;;;;19.70;54.20;;;;;;5022921;28;19924;-55
2022/04/14 02:59:18;;;;;;;;;;;19.70;54.30;;;;;;5003923;28;19920;-57
2022/04/14 03:01:44;;;;;;;;;;;19.70;54.20;;;;;;5022479;28;20378;-55
2022/04/14 03:04:09;;;;;;;;;;;19.70;54.20;;;;;;5022527;28;19925;-54
2022/04/14 03:06:35;;;;;;;;;;;19.70;54.20;;;;;;5023403;28;19923;-56
2022/04/14 03:09:00;;;;;;;;;;;19.60;54.20;;;;;;5020896;28;20326;-55
2022/04/14 03:11:26;;;;;;;;;;;19.60;54.20;;;;;;5022636;28;19917;-55
2022/04/14 03:13:51;;;;;;;;;;;19.70;54.20;;;;;;5022776;28;19967;-57
2022/04/14 03:16:17;;;;;;;;;;;19.70;54.20;;;;;;5023624;28;19931;-52
2022/04/14 03:18:42;;;;;;;;;;;19.60;54.20;;;;;;5021210;28;20259;-51
2022/04/14 03:21:07;;;;;;;;;;;19.60;54.20;;;;;;5023243;28;19921;-52
2022/04/14 03:23:33;;;;;;;;;;;19.60;54.20;;;;;;5022743;28;19923;-51
2022/04/14 03:25:58;;;;;;;;;;;19.60;54.20;;;;;;5023918;28;19952;-52
2022/04/14 03:28:24;;;;;;;;;;;19.60;54.20;;;;;;5022190;28;19920;-51
2022/04/14 03:30:49;;;;;;;;;;;19.60;54.20;;;;;;5004471;28;19967;-56
2022/04/14 03:33:15;;;;;;;;;;;19.60;54.20;;;;;;5019983;28;19917;-55
2022/04/14 03:35:40;;;;;;;;;;;19.60;54.20;;;;;;5022609;28;20382;-55
2022/04/14 03:38:06;;;;;;;;;;;19.60;54.20;;;;;;5022143;28;19917;-54
2022/04/14 03:40:31;;;;;;;;;;;19.60;54.20;;;;;;5022513;28;19979;-53
2022/04/14 03:42:57;;;;;;;;;;;19.60;54.20;;;;;;5023230;28;19924;-56
2022/04/14 03:45:22;;;;;;;;;;;19.60;54.20;;;;;;5023283;28;19929;-55
2022/04/14 03:47:48;;;;;;;;;;;19.60;54.20;;;;;;5022657;28;19913;-54
2022/04/14 03:50:13;;;;;;;;;;;19.60;54.20;;;;;;5022551;28;19917;-53
2022/04/14 03:52:38;;;;;;;;;;;19.60;54.20;;;;;;5022390;28;19921;-57
2022/04/14 03:55:05;;;;;;;;;;;19.60;54.20;;;;;;5022776;28;20287;-52
2022/04/14 03:57:30;;;;;;;;;;;19.60;54.20;;;;;;5023047;28;20012;-53
2022/04/14 03:59:56;;;;;;;;;;;19.60;54.20;;;;;;5021361;28;20550;-52
2022/04/14 04:02:21;;;;;;;;;;;19.60;54.20;;;;;;5015294;28;19917;-54
2022/04/14 04:04:47;;;;;;;;;;;19.60;54.20;;;;;;5023486;28;19913;-52
2022/04/14 04:07:12;;;;;;;;;;;19.60;54.20;;;;;;4994803;28;20594;-51
2022/04/14 04:09:38;;;;;;;;;;;19.60;54.20;;;;;;5031027;28;19918;-53
2022/04/14 04:12:04;;;;;;;;;;;19.60;54.20;;;;;;5018973;28;19921;-52
2022/04/14 04:14:29;;;;;;;;;;;19.60;54.20;;;;;;5005315;28;19921;-52
2022/04/14 04:16:55;;;;;;;;;;;19.60;54.20;;;;;;5022419;28;19943;-54
2022/04/14 04:19:20;;;;;;;;;;;19.60;54.20;;;;;;5021359;28;19921;-52
2022/04/14 04:21:46;;;;;;;;;;;19.60;54.20;;;;;;5021772;28;19919;-57
2022/04/14 04:24:11;;;;;;;;;;;19.60;54.20;;;;;;5021822;28;19924;-56
2022/04/14 04:26:37;;;;;;;;;;;19.60;54.20;;;;;;5022388;28;19967;-54
2022/04/14 04:29:02;;;;;;;;;;;19.60;54.20;;;;;;5022698;28;20390;-51
2022/04/14 04:31:28;;;;;;;;;;;19.60;54.20;;;;;;5026506;28;20056;-53
2022/04/14 04:33:53;;;;;;;;;;;19.60;54.20;;;;;;5026607;28;20630;-51
2022/04/14 04:36:19;;;;;;;;;;;19.60;54.20;;;;;;5026475;28;19913;-51
2022/04/14 04:38:44;;;;;;;;;;;19.60;54.30;;;;;;5024793;28;19917;-54
2022/04/14 04:41:09;;;;;;;;;;;19.60;54.40;;;;;;5025928;28;19913;-55
2022/04/14 04:43:35;;;;;;;;;;;19.60;54.40;;;;;;5026068;28;20100;-53
2022/04/14 04:46:00;;;;;;;;;;;19.60;54.40;;;;;;5025617;28;19921;-56
2022/04/14 04:48:26;;;;;;;;;;;19.60;54.40;;;;;;5025435;28;19940;-54
2022/04/14 04:50:51;;;;;;;;;;;19.60;54.50;;;;;;5025648;28;19921;-55
2022/04/14 04:53:17;;;;;;;;;;;19.60;54.40;;;;;;5025949;28;19917;-57
2022/04/14 04:55:42;;;;;;;;;;;19.60;54.30;;;;;;5025869;28;19913;-54
2022/04/14 04:58:08;;;;;;;;;;;19.70;54.40;;;;;;5024622;28;19921;-54
2022/04/14 05:00:33;;;;;;;;;;;19.70;54.40;;;;;;5024472;28;19919;-56
2022/04/14 05:02:59;;;;;;;;;;;19.70;54.30;;;;;;5026240;28;19917;-52
2022/04/14 05:05:24;;;;;;;;;;;19.70;54.30;;;;;;5001983;28;19913;-58
2022/04/14 05:07:50;;;;;;;;;;;19.70;54.40;;;;;;5024308;28;20513;-53
2022/04/14 05:10:15;;;;;;;;;;;19.70;54.30;;;;;;5024645;28;19944;-55
2022/04/14 05:12:41;;;;;;;;;;;19.70;54.40;;;;;;5024995;28;20202;-53
2022/04/14 05:15:06;;;;;;;;;;;19.70;54.30;;;;;;5014943;28;19924;-50
2022/04/14 05:17:32;;;;;;;;;;;19.70;54.40;;;;;;5026130;28;20012;-53
2022/04/14 05:19:57;;;;;;;;;;;19.70;55.00;;;;;;5023927;28;19914;-56
2022/04/14 05:22:23;;;;;;;;;;;19.70;54.40;;;;;;5025846;28;20286;-57
2022/04/14 05:24:48;;;;;;;;;;;19.70;54.40;;;;;;5024924;28;19917;-55
2022/04/14 05:27:14;;;;;;;;;;;19.70;54.30;;;;;;5025030;28;20633;-56
2022/04/14 05:29:39;;;;;;;;;;;19.70;54.40;;;;;;5021698;28;19917;-53
2022/04/14 05:32:05;;;;;;;;;;;19.70;54.50;;;;;;5025140;28;19947;-58
2022/04/14 05:34:31;;;;;;;;;;;19.70;54.50;;;;;;5025187;28;20421;-54
2022/04/14 05:36:56;;;;;;;;;;;19.70;54.50;;;;;;5025133;28;19921;-55
2022/04/14 05:39:21;;;;;;;;;;;19.70;54.50;;;;;;5024229;28;19917;-57
2022/04/14 05:41:47;;;;;;;;;;;19.70;54.40;;;;;;5007309;28;19914;-57
2022/04/14 05:44:12;;;;;;;;;;;19.70;54.40;;;;;;5024643;28;19913;-54
2022/04/14 05:46:38;;;;;;;;;;;19.70;54.40;;;;;;5025468;28;20006;-53
2022/04/14 05:49:03;;;;;;;;;;;19.70;54.40;;;;;;5023570;28;19920;-52
2022/04/14 05:51:29;;;;;;;;;;;19.70;54.50;;;;;;5025019;28;20382;-50
2022/04/14 05:53:54;;;;;;;;;;;19.70;54.40;;;;;;5024883;28;19917;-55
2022/04/14 05:56:20;;;;;;;;;;;19.70;54.40;;;;;;5026311;28;20046;-53
2022/04/14 05:58:45;;;;;;;;;;;19.70;54.50;;;;;;5023950;28;20781;-53
2022/04/14 06:01:11;;;;;;;;;;;19.70;54.50;;;;;;5025295;28;19966;-56
2022/04/14 06:03:38;;;;;;;;;;;19.70;54.50;;;;;;5024370;28;19917;-54
2022/04/14 06:06:03;;;;;;;;;;;19.70;54.50;;;;;;5026186;28;19914;-54
2022/04/14 06:08:29;;;;;;;;;;;19.70;54.50;;;;;;5022655;28;19927;-53
2022/04/14 06:10:55;;;;;;;;;;;19.80;54.50;;;;;;5025898;28;20446;-54
2022/04/14 06:13:20;;;;;;;;;;;19.70;54.50;;;;;;5024775;28;19920;-52
2022/04/14 06:15:45;;;;;;;;;;;19.80;54.70;;;;;;5025093;28;19917;-50
2022/04/14 06:18:11;;;;;;;;;;;19.80;54.70;;;;;;5024191;28;19971;-50
2022/04/14 06:20:36;;;;;;;;;;;19.80;54.70;;;;;;5023621;28;19917;-56
2022/04/14 06:23:02;;;;;;;;;;;19.80;54.90;;;;;;5024901;28;20370;-53
2022/04/14 06:25:28;;;;;;;;;;;19.80;55.00;;;;;;5007162;28;19921;-54
2022/04/14 06:27:55;;;;;;;;;;;19.80;55.20;;;;;;5025052;28;19974;-56
2022/04/14 06:30:20;;;;;;;;;;;19.80;55.30;;;;;;5005566;28;19917;-52
2022/04/14 06:32:56;;;;;;;;;;;19.80;55.20;;;;;;5023248;28;20409;-55
2022/04/14 06:35:21;;;;;;;;;;;19.80;55.50;;;;;;5024146;28;19917;-57
2022/04/14 06:37:47;;;;;;;;;;;19.80;55.40;;;;;;5023808;28;19917;-52
2022/04/14 06:40:12;;;;;;;;;;;19.80;55.40;;;;;;5023062;28;19913;-52
2022/04/14 06:42:37;;;;;;;;;;;19.80;55.30;;;;;;5021759;28;19913;-53
2022/04/14 06:45:03;;;;;;;;;;;19.80;55.20;;;;;;5021855;28;19945;-53
2022/04/14 06:47:28;;;;;;;;;;;19.80;55.40;;;;;;5022690;28;20587;-51
2022/04/14 06:49:54;;;;;;;;;;;19.80;55.40;;;;;;5003756;28;19925;-48
2022/04/14 06:52:20;;;;;;;;;;;19.80;55.50;;;;;;5021081;28;19921;-52
2022/04/14 06:54:45;;;;;;;;;;;19.80;55.60;;;;;;5023904;28;19917;-52
2022/04/14 06:57:11;;;;;;;;;;;19.80;55.50;;;;;;5011667;28;19917;-54
2022/04/14 06:59:36;;;;;;;;;;;19.80;55.60;;;;;;5021949;28;19991;-53
2022/04/14 07:02:02;;;;;;;;;;;19.80;55.40;;;;;;5013784;28;19978;-53
2022/04/14 07:04:28;;;;;;;;;;;19.80;55.30;;;;;;5023487;28;20370;-51
2022/04/14 07:06:53;;;;;;;;;;;19.80;55.20;;;;;;5022874;28;20366;-52
2022/04/14 07:09:18;;;;;;;;;;;19.80;55.20;;;;;;5022077;28;19917;-53
2022/04/14 07:11:44;;;;;;;;;;;19.80;55.20;;;;;;5023421;28;19913;-52
2022/04/14 07:14:09;;;;;;;;;;;19.80;55.20;;;;;;5023386;28;19964;-52
2022/04/14 07:16:35;;;;;;;;;;;19.70;55.10;;;;;;5023583;28;19920;-52
2022/04/14 07:19:00;;;;;;;;;;;19.80;55.30;;;;;;5021644;28;20371;-53
2022/04/14 07:21:26;;;;;;;;;;;19.80;55.10;;;;;;5022732;28;19921;-54
2022/04/14 07:23:51;;;;;;;;;;;19.80;55.20;;;;;;5023064;28;20080;-50
2022/04/14 07:26:17;;;;;;;;;;;19.80;55.20;;;;;;5023439;28;19971;-53
2022/04/14 07:28:42;;;;;;;;;;;19.70;55.00;;;;;;5021742;28;20000;-54
2022/04/14 07:31:08;;;;;;;;;;;19.70;55.00;;;;;;5022128;28;19924;-53
2022/04/14 07:33:34;;;;;;;;;;;19.70;55.00;;;;;;5023808;28;19913;-54
2022/04/14 07:35:59;;;;;;;;;;;19.70;54.90;;;;;;5023050;28;19914;-50
2022/04/14 07:38:25;;;;;;;;;;;19.70;54.90;;;;;;5021724;28;19967;-52
2022/04/14 07:40:50;;;;;;;;;;;19.70;55.00;;;;;;5022436;28;19945;-52
2022/04/14 07:43:16;;;;;;;;;;;19.70;54.90;;;;;;5023098;28;20370;-51
2022/04/14 07:45:42;;;;;;;;;;;19.70;54.80;;;;;;5020640;28;19986;-53
2022/04/14 07:48:08;;;;;;;;;;;19.70;54.80;;;;;;5022860;28;19932;-55
2022/04/14 07:50:34;;;;;;;;;;;19.70;54.80;;;;;;5021946;28;19983;-51
2022/04/14 07:52:59;;;;;;;;;;;19.70;54.90;;;;;;5023222;28;20395;-55
2022/04/14 07:55:30;;;;;;;;;;;19.70;54.90;;;;;;5023372;28;19913;-52
2022/04/14 07:57:56;;;;;;;;;;;19.70;54.80;;;;;;5022784;28;19913;-52
2022/04/14 08:00:22;;;;;;;;;;;19.70;54.80;;;;;;5020591;28;20345;-55
2022/04/14 08:02:48;;;;;;;;;;;19.70;54.80;;;;;;5022925;28;19917;-52
2022/04/14 08:05:13;;;;;;;;;;;19.70;54.80;;;;;;5022292;28;20072;-51
2022/04/14 08:07:39;;;;;;;;;;;19.70;54.90;;;;;;5005388;28;19920;-53
2022/04/14 08:10:04;;;;;;;;;;;19.70;54.90;;;;;;5022306;28;20302;-55
2022/04/14 08:12:30;;;;;;;;;;;19.70;54.90;;;;;;5022244;28;19972;-52
2022/04/14 08:14:55;;;;;;;;;;;19.70;54.90;;;;;;5021977;28;19917;-52
2022/04/14 08:17:20;;;;;;;;;;;19.70;54.80;;;;;;5023076;28;19917;-52
2022/04/14 08:19:46;;;;;;;;;;;19.70;54.80;;;;;;5021437;28;20405;-52
2022/04/14 08:22:11;;;;;;;;;;;19.70;54.90;;;;;;5023021;28;19932;-51
2022/04/14 08:24:37;;;;;;;;;;;19.80;54.90;;;;;;5005160;28;19924;-51
2022/04/14 08:27:02;;;;;;;;;;;19.80;54.90;;;;;;5021903;28;19917;-51
2022/04/14 08:29:29;;;;;;;;;;;19.80;54.90;;;;;;5002712;28;20434;-50
2022/04/14 08:31:55;;;;;;;;;;;19.80;54.90;;;;;;5021370;28;19960;-50
2022/04/14 08:34:21;;;;;;;;;;;19.80;54.90;;;;;;5019598;28;20365;-53
2022/04/14 08:36:46;;;;;;;;;;;19.70;54.90;;;;;;5020333;28;19924;-54
2022/04/14 08:39:12;;;;;;;;;;;19.70;54.90;;;;;;5018357;28;19944;-49
2022/04/14 08:41:37;;;;;;;;;;;19.70;54.90;;;;;;5002728;28;19917;-53
2022/04/14 08:44:04;;;;;;;;;;;19.70;55.00;;;;;;5015156;28;19913;-49
2022/04/14 08:46:30;;;;;;;;;;;19.70;55.00;;;;;;5021970;28;19925;-54
2022/04/14 08:48:57;;;;;;;;;;;19.70;54.90;;;;;;5009328;28;21386;-49
2022/04/14 08:51:22;;;;;;;;;;;19.70;55.10;;;;;;5020748;28;19917;-52
2022/04/14 08:53:48;;;;;;;;;;;19.70;55.00;;;;;;5022662;28;19917;-53
2022/04/14 08:56:14;;;;;;;;;;;19.70;55.00;;;;;;5021610;28;19917;-51
2022/04/14 08:58:40;;;;;;;;;;;19.70;54.90;;;;;;5002149;28;19917;-52
2022/04/14 09:01:05;;;;;;;;;;;19.70;55.00;;;;;;5004224;28;19945;-52
2022/04/14 09:03:31;;;;;;;;;;;19.70;55.00;;;;;;5007236;28;19917;-50
2022/04/14 09:05:57;;;;;;;;;;;19.70;55.00;;;;;;5020212;28;19944;-53
2022/04/14 09:08:22;;;;;;;;;;;19.70;55.00;;;;;;5020284;28;19913;-50
2022/04/14 09:10:48;;;;;;;;;;;19.70;55.00;;;;;;5020759;28;19927;-53
2022/04/14 09:13:14;;;;;;;;;;;19.70;55.00;;;;;;5005040;28;20546;-51
2022/04/14 09:15:40;;;;;;;;;;;19.70;55.10;;;;;;5024821;28;20298;-51
2022/04/14 09:18:05;;;;;;;;;;;19.70;55.00;;;;;;5025492;23;19994;-51
2022/04/14 09:20:36;;;;;;;;;;;19.70;55.00;;;;;;5004029;28;19941;-50
2022/04/14 09:23:14;;;;;;;;;;;19.70;55.10;;;;;;5006017;28;19917;-53
2022/04/14 09:25:39;;;;;;;;;;;19.70;55.10;;;;;;4977000;28;20371;-51
2022/04/14 09:28:09;;;;;;;;;;;19.80;55.20;;;;;;4981426;28;20036;-51
2022/04/14 09:30:34;;;;;;;;;;;19.70;55.10;;;;;;4985621;28;19945;-52
2022/04/14 09:32:59;;;;;;;;;;;19.70;55.00;;;;;;4985090;28;19918;-50
2022/04/14 09:35:31;;;;;;;;;;;19.70;55.20;;;;;;4986339;28;19921;-49
2022/04/14 09:38:03;;;;;;;;;;;19.70;55.00;;;;;;4985787;28;19919;-52
2022/04/14 09:40:29;;;;;;;;;;;19.70;55.10;;;;;;4983930;28;20016;-51
2022/04/14 09:42:54;;;;;;;;;;;19.70;55.10;;;;;;4986000;28;20132;-54
2022/04/14 09:45:20;;;;;;;;;;;19.70;55.20;;;;;;4986147;28;19918;-53
2022/04/14 09:47:46;;;;;;;;;;;19.70;55.10;;;;;;4985127;28;20064;-52
2022/04/14 09:50:40;;;;;;;;;;;19.70;55.30;;;;;;4984570;28;20432;-52
2022/04/14 09:53:33;;;;;;;;;;;19.70;55.20;;;;;;4986091;28;20354;-53
2022/04/14 09:55:59;;;;;;;;;;;19.70;55.20;;;;;;4984927;28;19921;-52
2022/04/14 09:58:26;;;;;;;;;;;19.70;55.00;;;;;;4984659;28;19960;-51
2022/04/14 10:00:52;;;;;;;;;;;19.80;55.30;;;;;;4985626;28;20012;-50
2022/04/14 10:03:30;;;;;;;;;;;19.80;55.30;;;;;;4981809;28;19925;-50
2022/04/14 10:05:56;;;;;;;;;;;19.80;55.20;;;;;;4986409;28;19928;-49
2022/04/14 10:08:24;;;;;;;;;;;19.80;55.20;;;;;;4985959;28;19917;-55
2022/04/14 10:10:50;;;;;;;;;;;19.80;55.20;;;;;;4982692;28;20086;-51
2022/04/14 10:13:16;;;;;;;;;;;19.80;55.20;;;;;;4988169;28;20055;-50
2022/04/14 10:15:42;;;;;;;;;;;19.80;55.30;;;;;;4988948;28;19922;-53
2022/04/14 10:18:09;;;;;;;;;;;19.70;55.10;;;;;;4993973;28;20380;-55
2022/04/14 10:20:34;;;;;;;;;;;19.80;55.20;;;;;;5001031;28;19921;-53
2022/04/14 10:23:00;;;;;;;;;;;19.70;55.30;;;;;;5005384;28;19918;-54
2022/04/14 10:25:25;;;;;;;;;;;19.80;55.40;;;;;;4991834;28;20283;-52
2022/04/14 10:27:52;;;;;;;;;;;19.80;55.30;;;;;;4986182;28;19969;-50
2022/04/14 10:30:20;;;;;;;;;;;19.80;55.30;;;;;;5001670;28;20307;-53
2022/04/14 10:32:46;;;;;;;;;;;19.80;55.30;;;;;;5005836;28;19917;-49
2022/04/14 10:35:11;;;;;;;;;;;19.80;55.30;;;;;;4997019;28;19914;-48
2022/04/14 10:37:42;;;;;;;;;;;19.80;55.40;;;;;;4986964;28;19918;-48
2022/04/14 10:40:08;;;;;;;;;;;19.80;55.50;;;;;;4982784;28;20384;-51
2022/04/14 10:42:33;;;;;;;;;;;19.80;55.50;;;;;;4983632;28;19918;-50
2022/04/14 10:44:59;;;;;;;;;;;19.80;55.50;;;;;;4983532;28;19920;-52
2022/04/14 10:47:42;;;;;;;;;;;19.80;55.40;;;;;;4984063;28;19925;-51
2022/04/14 10:50:18;;;;;;;;;;;19.80;55.50;;;;;;4979196;28;19929;-53
2022/04/14 10:52:45;;;;;;;;;;;19.80;55.50;;;;;;4983700;28;20493;-54
2022/04/14 10:55:11;;;;;;;;;;;19.80;55.60;;;;;;4983286;28;19921;-53
2022/04/14 10:57:40;;;;;;;;;;;19.80;55.60;;;;;;4984183;28;19918;-50
2022/04/14 11:00:21;;;;;;;;;;;19.80;55.60;;;;;;4979968;28;20387;-47
2022/04/14 11:03:02;;;;;;;;;;;19.80;55.50;;;;;;4984501;28;19918;-51
2022/04/14 11:05:44;;;;;;;;;;;19.90;55.90;;;;;;4985068;28;20464;-51
2022/04/14 11:08:24;;;;;;;;;;;19.80;55.70;;;;;;4981837;28;20403;-52
2022/04/14 11:10:53;;;;;;;;;;;19.80;55.50;;;;;;4983275;28;19956;-49
2022/04/14 11:13:19;;;;;;;;;;;19.80;55.80;;;;;;4984688;28;19914;-52
2022/04/14 11:15:44;;;;;;;;;;;19.90;56.50;;;;;;4984441;28;19921;-50
2022/04/14 11:18:10;;;;;;;;;;;19.90;56.00;;;;;;4984811;28;19922;-50
2022/04/14 11:20:36;;;;;;;;;;;19.90;56.60;;;;;;4982577;28;20569;-51
2022/04/14 11:23:01;;;;;;;;;;;19.90;56.00;;;;;;4984355;28;19917;-53
2022/04/14 11:25:45;;;;;;;;;;;19.90;56.00;;;;;;4985186;28;19921;-49
2022/04/14 11:28:33;;;;;;;;;;;19.90;56.10;;;;;;4984790;28;20484;-49
2022/04/14 11:31:14;;;;;;;;;;;19.80;56.10;;;;;;4984658;28;19931;-48
2022/04/14 11:33:42;;;;;;;;;;;19.90;56.80;;;;;;4985095;28;19914;-52
2022/04/14 11:36:10;;;;;;;;;;;19.90;56.00;;;;;;4983219;28;20364;-47
2022/04/14 11:39:00;;;;;;;;;;;19.90;56.10;;;;;;4983665;28;20008;-49
2022/04/14 11:41:46;;;;;;;;;;;19.80;55.90;;;;;;4984838;28;19917;-49
2022/04/14 11:44:11;;;;;;;;;;;19.90;55.90;;;;;;4984806;28;19920;-49
2022/04/14 11:46:40;;;;;;;;;;;19.90;56.00;;;;;;4984764;28;22106;-49
2022/04/14 11:49:06;;;;;;;;;;;19.90;56.00;;;;;;4983114;28;20414;-48
2022/04/14 11:51:31;;;;;;;;;;;19.80;56.50;;;;;;4983642;28;19949;-51
2022/04/14 11:53:57;;;;;;;;;;;19.90;56.00;;;;;;4983271;28;19945;-52
2022/04/14 11:56:24;;;;;;;;;;;19.90;56.00;;;;;;4984431;28;20394;-51
2022/04/14 11:58:50;;;;;;;;;;;19.90;55.80;;;;;;4982963;28;19932;-56
2022/04/14 12:01:15;;;;;;;;;;;19.90;56.10;;;;;;4980366;28;19914;-53
2022/04/14 12:03:41;;;;;;;;;;;19.90;56.20;;;;;;4983999;28;19918;-61
2022/04/14 12:06:10;;;;;;;;;;;19.90;56.20;;;;;;4984264;28;19925;-51
2022/04/14 12:08:35;;;;;;;;;;;19.90;56.30;;;;;;4982277;28;20009;-49
2022/04/14 12:11:06;;;;;;;;;;;19.90;56.40;;;;;;4984095;28;20204;-50
2022/04/14 12:13:32;;;;;;;;;;;19.90;56.30;;;;;;4983400;28;19918;-53
2022/04/14 12:16:05;;;;;;;;;;;19.90;56.40;;;;;;4984053;28;19997;-53
2022/04/14 12:18:30;;;;;;;;;;;19.90;56.80;;;;;;4982359;28;20665;-50
2022/04/14 12:20:56;;;;;;;;;;;19.90;56.80;;;;;;4983044;28;19913;-48
2022/04/14 12:23:22;;;;;;;;;;;19.90;56.40;;;;;;4984027;28;19918;-47
2022/04/14 12:25:47;;;;;;;;;;;20.00;57.30;;;;;;4983990;28;19918;-47
2022/04/14 12:28:13;;;;;;;;;;;20.10;56.50;;;;;;4987607;28;19932;-47
2022/04/14 12:30:41;;;;;;;;;;;20.10;56.50;;;;;;5001294;28;19964;-45
2022/04/14 12:33:06;;;;;;;;;;;20.00;56.70;;;;;;4986983;28;19940;-48
2022/04/14 12:35:33;;;;;;;;;;;20.00;56.40;;;;;;4983683;28;19921;-47
2022/04/14 12:38:17;;;;;;;;;;;20.00;56.60;;;;;;4983062;28;20013;-45
2022/04/14 12:40:55;;;;;;;;;;;20.00;56.60;;;;;;4981931;28;19921;-47
2022/04/14 12:43:24;;;;;;;;;;;20.00;57.60;;;;;;4983250;28;20684;-48
2022/04/14 12:45:49;;;;;;;;;;;20.40;57.50;;;;;;4983180;28;19913;-47
2022/04/14 12:48:25;;;;;;;;;;;20.40;56.90;;;;;;4984540;28;20036;-47
2022/04/14 12:50:56;;;;;;;;;;;20.50;56.60;;;;;;4984241;28;19972;-47
2022/04/14 12:53:25;;;;;;;;;;;20.60;56.50;;;;;;4986622;28;19941;-47
2022/04/14 12:55:50;;;;;;;;;;;20.60;56.40;;;;;;4987180;28;19918;-49
2022/04/14 12:58:16;;;;;;;;;;;20.60;56.30;;;;;;4986259;28;20064;-47
2022/04/14 13:00:41;;;;;;;;;;;20.60;56.30;;;;;;4985533;28;19913;-53
2022/04/14 13:03:13;;;;;;;;;;;20.60;56.40;;;;;;4986781;28;20399;-46
2022/04/14 13:05:39;;;;;;;;;;;20.60;56.20;;;;;;4980978;28;19914;-48
2022/04/14 13:08:05;;;;;;;;;;;20.60;56.00;;;;;;4997796;28;20322;-46
2022/04/14 13:10:34;;;;;;;;;;;20.60;55.80;;;;;;4984945;28;19918;-49
2022/04/14 13:13:01;;;;;;;;;;;20.60;55.60;;;;;;4986159;28;19921;-46
2022/04/14 13:15:28;;;;;;;;;;;20.60;55.50;;;;;;4986870;28;19968;-47
2022/04/14 13:17:54;;;;;;;;;;;20.60;55.40;;;;;;4985894;28;20539;-47
2022/04/14 13:20:20;;;;;;;;;;;20.60;55.30;;;;;;4985389;28;19976;-49
2022/04/14 13:22:47;;;;;;;;;;;20.60;55.20;;;;;;4985463;28;20001;-49
2022/04/14 13:25:13;;;;;;;;;;;20.60;55.10;;;;;;4986630;28;19941;-47
2022/04/14 13:27:38;;;;;;;;;;;20.60;55.00;;;;;;4985356;28;19941;-48
2022/04/14 13:30:04;;;;;;;;;;;20.60;55.00;;;;;;4985275;28;20315;-45
2022/04/14 13:32:29;;;;;;;;;;;20.70;55.30;;;;;;4985116;28;20435;-47
2022/04/14 13:34:55;;;;;;;;;;;20.70;55.30;;;;;;4986208;28;19913;-45
2022/04/14 13:37:21;;;;;;;;;;;20.70;55.30;;;;;;4985970;28;19914;-46
2022/04/14 13:39:46;;;;;;;;;;;20.70;55.20;;;;;;4984420;28;20013;-47
2022/04/14 13:42:11;;;;;;;;;;;20.70;55.20;;;;;;4986147;28;19914;-52
2022/04/14 13:44:37;;;;;;;;;;;20.70;55.40;;;;;;4982584;28;19961;-48
2022/04/14 13:47:02;;;;;;;;;;;20.70;55.40;;;;;;4985025;28;19914;-45
2022/04/14 13:49:28;;;;;;;;;;;20.80;55.40;;;;;;4984502;28;20059;-44
2022/04/14 13:51:53;;;;;;;;;;;20.80;55.30;;;;;;4985742;28;19913;-48
2022/04/14 13:54:19;;;;;;;;;;;20.80;55.40;;;;;;4985665;28;19913;-45
2022/04/14 13:56:44;;;;;;;;;;;20.70;55.30;;;;;;4985512;28;19914;-47
2022/04/14 13:59:09;;;;;;;;;;;20.80;55.30;;;;;;4984433;28;19961;-45
2022/04/14 14:01:35;;;;;;;;;;;20.80;55.30;;;;;;4985676;28;19925;-48
2022/04/14 14:04:00;;;;;;;;;;;20.80;55.40;;;;;;4984265;28;19914;-47
2022/04/14 14:06:26;;;;;;;;;;;20.80;55.50;;;;;;4986051;28;19918;-47
2022/04/14 14:08:52;;;;;;;;;;;20.80;55.60;;;;;;4983716;28;19914;-47
2022/04/14 14:11:18;;;;;;;;;;;20.80;55.70;;;;;;4985721;28;19922;-49
2022/04/14 14:13:44;;;;;;;;;;;20.80;55.70;;;;;;4985670;28;19918;-49